sensor_id;sensor_type;location;lat;lon;timestamp;P1;durP1;ratioP1;P2;durP2;ratioP2
1380;SDS011;684;48.342;10.096;2023-07-09T00:01:45;8.97;;;5.50;;
1380;SDS011;684;48.342;10.096;2023-07-09T00:04:12;8.97;;;5.33;;
1380;SDS011;684;48.342;10.096;2023-07-09T00:06:39;11.53;;;4.90;;
1380;SDS011;684;48.342;10.096;2023-07-09T00:09:09;9.93;;;5.67;;
1380;SDS011;684;48.342;10.096;2023-07-09T00:11:39;8.63;;;5.43;;
1380;SDS011;684;48.342;10.096;2023-07-09T00:14:09;8.07;;;5.00;;
1380;SDS011;684;48.342;10.096;2023-07-09T00:16:37;9.17;;;5.60;;
1380;SDS011;684;48.342;10.096;2023-07-09T00:19:04;9.80;;;5.90;;
1380;SDS011;684;48.342;10.096;2023-07-09T00:21:38;9.73;;;5.27;;
1380;SDS011;684;48.342;10.096;2023-07-09T00:24:05;12.43;;;6.00;;
1380;SDS011;684;48.342;10.096;2023-07-09T00:26:32;10.47;;;5.93;;
1380;SDS011;684;48.342;10.096;2023-07-09T00:29:00;9.13;;;5.57;;
1380;SDS011;684;48.342;10.096;2023-07-09T00:31:28;8.73;;;5.33;;
1380;SDS011;684;48.342;10.096;2023-07-09T00:33:54;10.30;;;5.70;;
1380;SDS011;684;48.342;10.096;2023-07-09T00:36:26;9.50;;;5.93;;
1380;SDS011;684;48.342;10.096;2023-07-09T00:38:56;10.30;;;5.87;;
1380;SDS011;684;48.342;10.096;2023-07-09T00:41:24;10.73;;;5.67;;
1380;SDS011;684;48.342;10.096;2023-07-09T00:43:53;18.73;;;6.37;;
1380;SDS011;684;48.342;10.096;2023-07-09T00:49:30;10.10;;;6.27;;
1380;SDS011;684;48.342;10.096;2023-07-09T00:52:00;9.50;;;5.33;;
1380;SDS011;684;48.342;10.096;2023-07-09T00:54:41;8.63;;;5.47;;
1380;SDS011;684;48.342;10.096;2023-07-09T00:57:12;11.27;;;5.93;;
1380;SDS011;684;48.342;10.096;2023-07-09T00:59:43;11.57;;;5.03;;
1380;SDS011;684;48.342;10.096;2023-07-09T01:02:13;9.50;;;5.63;;
1380;SDS011;684;48.342;10.096;2023-07-09T01:04:42;10.90;;;5.77;;
1380;SDS011;684;48.342;10.096;2023-07-09T01:07:09;10.20;;;5.67;;
1380;SDS011;684;48.342;10.096;2023-07-09T01:09:36;8.03;;;5.20;;
1380;SDS011;684;48.342;10.096;2023-07-09T01:12:06;9.10;;;5.40;;
1380;SDS011;684;48.342;10.096;2023-07-09T01:14:35;9.37;;;5.97;;
1380;SDS011;684;48.342;10.096;2023-07-09T01:17:03;11.83;;;5.63;;
1380;SDS011;684;48.342;10.096;2023-07-09T01:19:35;9.90;;;5.60;;
1380;SDS011;684;48.342;10.096;2023-07-09T01:22:10;10.23;;;5.47;;
1380;SDS011;684;48.342;10.096;2023-07-09T01:24:52;11.67;;;6.67;;
1380;SDS011;684;48.342;10.096;2023-07-09T01:27:24;9.47;;;5.77;;
1380;SDS011;684;48.342;10.096;2023-07-09T01:29:52;9.87;;;6.40;;
1380;SDS011;684;48.342;10.096;2023-07-09T01:32:19;11.73;;;6.30;;
1380;SDS011;684;48.342;10.096;2023-07-09T01:34:48;11.80;;;6.50;;
1380;SDS011;684;48.342;10.096;2023-07-09T01:37:20;9.63;;;5.87;;
1380;SDS011;684;48.342;10.096;2023-07-09T01:39:49;10.93;;;5.87;;
1380;SDS011;684;48.342;10.096;2023-07-09T01:42:16;11.90;;;6.37;;
1380;SDS011;684;48.342;10.096;2023-07-09T01:44:45;10.93;;;7.13;;
1380;SDS011;684;48.342;10.096;2023-07-09T01:47:11;9.93;;;5.90;;
1380;SDS011;684;48.342;10.096;2023-07-09T01:49:38;10.50;;;6.70;;
1380;SDS011;684;48.342;10.096;2023-07-09T01:52:06;10.50;;;5.73;;
1380;SDS011;684;48.342;10.096;2023-07-09T01:54:36;9.33;;;5.50;;
1380;SDS011;684;48.342;10.096;2023-07-09T01:57:12;11.37;;;6.33;;
1380;SDS011;684;48.342;10.096;2023-07-09T01:59:41;8.33;;;5.10;;
1380;SDS011;684;48.342;10.096;2023-07-09T02:02:09;10.57;;;5.47;;
1380;SDS011;684;48.342;10.096;2023-07-09T02:04:43;9.63;;;6.07;;
1380;SDS011;684;48.342;10.096;2023-07-09T02:07:11;14.10;;;6.80;;
1380;SDS011;684;48.342;10.096;2023-07-09T02:09:39;11.67;;;6.30;;
1380;SDS011;684;48.342;10.096;2023-07-09T02:12:07;17.37;;;7.00;;
1380;SDS011;684;48.342;10.096;2023-07-09T02:14:35;8.60;;;5.83;;
1380;SDS011;684;48.342;10.096;2023-07-09T02:17:01;11.70;;;5.80;;
1380;SDS011;684;48.342;10.096;2023-07-09T02:19:29;10.07;;;5.73;;
1380;SDS011;684;48.342;10.096;2023-07-09T02:21:56;8.83;;;6.47;;
1380;SDS011;684;48.342;10.096;2023-07-09T02:24:23;10.10;;;5.97;;
1380;SDS011;684;48.342;10.096;2023-07-09T02:26:53;9.00;;;5.80;;
1380;SDS011;684;48.342;10.096;2023-07-09T02:29:20;8.80;;;5.80;;
1380;SDS011;684;48.342;10.096;2023-07-09T02:31:48;9.10;;;6.80;;
1380;SDS011;684;48.342;10.096;2023-07-09T02:34:15;9.93;;;6.80;;
1380;SDS011;684;48.342;10.096;2023-07-09T02:36:42;9.27;;;6.13;;
1380;SDS011;684;48.342;10.096;2023-07-09T02:39:09;10.30;;;6.30;;
1380;SDS011;684;48.342;10.096;2023-07-09T02:41:37;10.63;;;6.67;;
1380;SDS011;684;48.342;10.096;2023-07-09T02:44:06;9.77;;;6.13;;
1380;SDS011;684;48.342;10.096;2023-07-09T02:46:33;10.80;;;6.77;;
1380;SDS011;684;48.342;10.096;2023-07-09T02:49:00;11.90;;;7.23;;
1380;SDS011;684;48.342;10.096;2023-07-09T02:51:29;13.07;;;7.97;;
1380;SDS011;684;48.342;10.096;2023-07-09T02:53:57;10.80;;;6.70;;
1380;SDS011;684;48.342;10.096;2023-07-09T02:56:25;12.90;;;7.47;;
1380;SDS011;684;48.342;10.096;2023-07-09T02:58:52;11.60;;;6.47;;
1380;SDS011;684;48.342;10.096;2023-07-09T03:01:21;12.20;;;7.30;;
1380;SDS011;684;48.342;10.096;2023-07-09T03:03:50;13.80;;;6.20;;
1380;SDS011;684;48.342;10.096;2023-07-09T03:06:19;12.90;;;7.27;;
1380;SDS011;684;48.342;10.096;2023-07-09T03:08:46;10.00;;;7.40;;
1380;SDS011;684;48.342;10.096;2023-07-09T03:11:13;10.93;;;6.57;;
1380;SDS011;684;48.342;10.096;2023-07-09T03:13:41;10.53;;;6.73;;
1380;SDS011;684;48.342;10.096;2023-07-09T03:16:08;9.90;;;6.37;;
1380;SDS011;684;48.342;10.096;2023-07-09T03:18:37;9.63;;;6.77;;
1380;SDS011;684;48.342;10.096;2023-07-09T03:21:04;10.97;;;6.90;;
1380;SDS011;684;48.342;10.096;2023-07-09T03:23:31;10.63;;;6.17;;
1380;SDS011;684;48.342;10.096;2023-07-09T03:25:57;12.80;;;6.30;;
1380;SDS011;684;48.342;10.096;2023-07-09T03:28:25;12.60;;;8.20;;
1380;SDS011;684;48.342;10.096;2023-07-09T03:30:53;12.10;;;7.47;;
1380;SDS011;684;48.342;10.096;2023-07-09T03:33:21;13.20;;;7.07;;
1380;SDS011;684;48.342;10.096;2023-07-09T03:35:50;10.20;;;6.70;;
1380;SDS011;684;48.342;10.096;2023-07-09T03:38:17;8.83;;;6.70;;
1380;SDS011;684;48.342;10.096;2023-07-09T03:40:44;11.20;;;6.40;;
1380;SDS011;684;48.342;10.096;2023-07-09T03:43:11;10.07;;;6.83;;
1380;SDS011;684;48.342;10.096;2023-07-09T03:45:38;9.40;;;6.10;;
1380;SDS011;684;48.342;10.096;2023-07-09T03:48:05;10.20;;;6.60;;
1380;SDS011;684;48.342;10.096;2023-07-09T03:50:32;11.00;;;6.93;;
1380;SDS011;684;48.342;10.096;2023-07-09T03:53:00;12.00;;;8.17;;
1380;SDS011;684;48.342;10.096;2023-07-09T03:55:27;11.27;;;7.30;;
1380;SDS011;684;48.342;10.096;2023-07-09T03:57:54;12.23;;;6.77;;
1380;SDS011;684;48.342;10.096;2023-07-09T04:00:21;10.23;;;6.30;;
1380;SDS011;684;48.342;10.096;2023-07-09T04:02:49;11.60;;;6.90;;
1380;SDS011;684;48.342;10.096;2023-07-09T04:05:17;11.10;;;7.33;;
1380;SDS011;684;48.342;10.096;2023-07-09T04:07:44;10.40;;;6.63;;
1380;SDS011;684;48.342;10.096;2023-07-09T04:10:13;10.90;;;6.73;;
1380;SDS011;684;48.342;10.096;2023-07-09T04:12:40;11.37;;;6.80;;
1380;SDS011;684;48.342;10.096;2023-07-09T04:17:41;10.63;;;6.50;;
1380;SDS011;684;48.342;10.096;2023-07-09T04:20:08;13.73;;;7.03;;
1380;SDS011;684;48.342;10.096;2023-07-09T04:22:36;11.50;;;7.40;;
1380;SDS011;684;48.342;10.096;2023-07-09T04:25:03;10.57;;;6.70;;
1380;SDS011;684;48.342;10.096;2023-07-09T04:27:36;10.13;;;6.40;;
1380;SDS011;684;48.342;10.096;2023-07-09T04:30:03;13.50;;;8.30;;
1380;SDS011;684;48.342;10.096;2023-07-09T04:32:30;12.10;;;6.73;;
1380;SDS011;684;48.342;10.096;2023-07-09T04:34:57;10.40;;;6.47;;
1380;SDS011;684;48.342;10.096;2023-07-09T04:37:24;14.73;;;6.80;;
1380;SDS011;684;48.342;10.096;2023-07-09T04:39:51;9.17;;;6.20;;
1380;SDS011;684;48.342;10.096;2023-07-09T04:42:17;11.10;;;5.90;;
1380;SDS011;684;48.342;10.096;2023-07-09T04:44:46;9.70;;;5.80;;
1380;SDS011;684;48.342;10.096;2023-07-09T04:47:12;8.27;;;5.23;;
1380;SDS011;684;48.342;10.096;2023-07-09T04:49:39;11.90;;;6.37;;
1380;SDS011;684;48.342;10.096;2023-07-09T04:52:07;11.13;;;5.87;;
1380;SDS011;684;48.342;10.096;2023-07-09T04:54:36;10.40;;;5.73;;
1380;SDS011;684;48.342;10.096;2023-07-09T04:57:04;9.10;;;5.40;;
1380;SDS011;684;48.342;10.096;2023-07-09T04:59:32;9.47;;;5.07;;
1380;SDS011;684;48.342;10.096;2023-07-09T05:02:00;8.80;;;5.47;;
1380;SDS011;684;48.342;10.096;2023-07-09T05:04:26;9.07;;;5.47;;
1380;SDS011;684;48.342;10.096;2023-07-09T05:06:53;8.20;;;5.10;;
1380;SDS011;684;48.342;10.096;2023-07-09T05:09:20;7.20;;;4.77;;
1380;SDS011;684;48.342;10.096;2023-07-09T05:11:48;9.87;;;5.60;;
1380;SDS011;684;48.342;10.096;2023-07-09T05:14:15;9.40;;;4.67;;
1380;SDS011;684;48.342;10.096;2023-07-09T05:16:42;8.30;;;5.27;;
1380;SDS011;684;48.342;10.096;2023-07-09T05:19:10;11.27;;;5.57;;
1380;SDS011;684;48.342;10.096;2023-07-09T05:21:37;9.77;;;5.67;;
1380;SDS011;684;48.342;10.096;2023-07-09T05:24:04;9.97;;;5.37;;
1380;SDS011;684;48.342;10.096;2023-07-09T05:26:32;9.17;;;5.13;;
1380;SDS011;684;48.342;10.096;2023-07-09T05:28:58;7.13;;;4.93;;
1380;SDS011;684;48.342;10.096;2023-07-09T05:31:25;7.80;;;4.83;;
1380;SDS011;684;48.342;10.096;2023-07-09T05:33:52;9.43;;;4.77;;
1380;SDS011;684;48.342;10.096;2023-07-09T05:36:20;7.73;;;4.90;;
1380;SDS011;684;48.342;10.096;2023-07-09T05:38:46;11.83;;;5.23;;
1380;SDS011;684;48.342;10.096;2023-07-09T05:41:13;8.23;;;5.57;;
1380;SDS011;684;48.342;10.096;2023-07-09T05:43:41;7.70;;;4.87;;
1380;SDS011;684;48.342;10.096;2023-07-09T05:46:09;7.93;;;5.30;;
1380;SDS011;684;48.342;10.096;2023-07-09T05:48:36;8.10;;;5.50;;
1380;SDS011;684;48.342;10.096;2023-07-09T05:51:03;6.57;;;4.83;;
1380;SDS011;684;48.342;10.096;2023-07-09T05:53:31;11.77;;;5.03;;
1380;SDS011;684;48.342;10.096;2023-07-09T05:55:58;6.97;;;4.80;;
1380;SDS011;684;48.342;10.096;2023-07-09T05:58:25;9.73;;;5.20;;
1380;SDS011;684;48.342;10.096;2023-07-09T06:00:52;8.40;;;4.80;;
1380;SDS011;684;48.342;10.096;2023-07-09T06:03:22;6.70;;;4.33;;
1380;SDS011;684;48.342;10.096;2023-07-09T06:05:50;8.50;;;5.10;;
1380;SDS011;684;48.342;10.096;2023-07-09T06:08:17;6.63;;;4.40;;
1380;SDS011;684;48.342;10.096;2023-07-09T06:10:52;7.93;;;4.50;;
1380;SDS011;684;48.342;10.096;2023-07-09T06:13:20;8.40;;;4.53;;
1380;SDS011;684;48.342;10.096;2023-07-09T06:15:47;6.27;;;4.20;;
1380;SDS011;684;48.342;10.096;2023-07-09T06:18:14;8.27;;;4.30;;
1380;SDS011;684;48.342;10.096;2023-07-09T06:20:41;9.60;;;5.03;;
1380;SDS011;684;48.342;10.096;2023-07-09T06:23:12;5.83;;;3.90;;
1380;SDS011;684;48.342;10.096;2023-07-09T06:25:39;6.73;;;4.37;;
1380;SDS011;684;48.342;10.096;2023-07-09T06:28:07;7.33;;;4.40;;
1380;SDS011;684;48.342;10.096;2023-07-09T06:30:35;7.30;;;4.10;;
1380;SDS011;684;48.342;10.096;2023-07-09T06:33:02;6.60;;;4.17;;
1380;SDS011;684;48.342;10.096;2023-07-09T06:35:29;7.83;;;4.20;;
1380;SDS011;684;48.342;10.096;2023-07-09T06:37:55;6.47;;;3.93;;
1380;SDS011;684;48.342;10.096;2023-07-09T06:40:22;6.30;;;4.00;;
1380;SDS011;684;48.342;10.096;2023-07-09T06:42:49;7.73;;;4.30;;
1380;SDS011;684;48.342;10.096;2023-07-09T06:45:17;5.80;;;3.90;;
1380;SDS011;684;48.342;10.096;2023-07-09T06:47:44;5.90;;;4.03;;
1380;SDS011;684;48.342;10.096;2023-07-09T06:50:11;6.73;;;3.60;;
1380;SDS011;684;48.342;10.096;2023-07-09T06:52:38;6.90;;;4.47;;
1380;SDS011;684;48.342;10.096;2023-07-09T06:55:05;6.20;;;4.00;;
1380;SDS011;684;48.342;10.096;2023-07-09T06:57:32;6.00;;;4.17;;
1380;SDS011;684;48.342;10.096;2023-07-09T06:59:59;8.47;;;4.20;;
1380;SDS011;684;48.342;10.096;2023-07-09T07:02:27;6.83;;;3.73;;
1380;SDS011;684;48.342;10.096;2023-07-09T07:04:53;6.23;;;3.90;;
1380;SDS011;684;48.342;10.096;2023-07-09T07:07:20;5.47;;;4.10;;
1380;SDS011;684;48.342;10.096;2023-07-09T07:09:47;6.83;;;3.60;;
1380;SDS011;684;48.342;10.096;2023-07-09T07:12:19;6.60;;;3.80;;
1380;SDS011;684;48.342;10.096;2023-07-09T07:14:49;7.63;;;3.97;;
1380;SDS011;684;48.342;10.096;2023-07-09T07:17:16;6.60;;;3.67;;
1380;SDS011;684;48.342;10.096;2023-07-09T07:19:44;5.53;;;3.40;;
1380;SDS011;684;48.342;10.096;2023-07-09T07:22:11;5.53;;;3.73;;
1380;SDS011;684;48.342;10.096;2023-07-09T07:24:38;6.07;;;3.80;;
1380;SDS011;684;48.342;10.096;2023-07-09T07:27:04;9.80;;;3.77;;
1380;SDS011;684;48.342;10.096;2023-07-09T07:29:31;7.13;;;4.03;;
1380;SDS011;684;48.342;10.096;2023-07-09T07:31:58;6.03;;;3.93;;
1380;SDS011;684;48.342;10.096;2023-07-09T07:34:25;6.07;;;3.60;;
1380;SDS011;684;48.342;10.096;2023-07-09T07:36:53;7.50;;;4.00;;
1380;SDS011;684;48.342;10.096;2023-07-09T07:39:20;4.45;;;3.55;;
1380;SDS011;684;48.342;10.096;2023-07-09T07:41:47;5.15;;;2.80;;
1380;SDS011;684;48.342;10.096;2023-07-09T07:44:15;6.13;;;3.53;;
1380;SDS011;684;48.342;10.096;2023-07-09T07:46:42;5.03;;;3.50;;
1380;SDS011;684;48.342;10.096;2023-07-09T07:49:09;5.95;;;3.60;;
1380;SDS011;684;48.342;10.096;2023-07-09T07:51:36;5.30;;;3.30;;
1380;SDS011;684;48.342;10.096;2023-07-09T07:54:05;5.07;;;3.88;;
1380;SDS011;684;48.342;10.096;2023-07-09T07:56:33;5.28;;;3.55;;
1380;SDS011;684;48.342;10.096;2023-07-09T07:59:00;5.03;;;2.95;;
1380;SDS011;684;48.342;10.096;2023-07-09T08:01:27;6.82;;;3.88;;
1380;SDS011;684;48.342;10.096;2023-07-09T08:03:54;5.45;;;3.17;;
1380;SDS011;684;48.342;10.096;2023-07-09T08:06:21;4.88;;;3.67;;
1380;SDS011;684;48.342;10.096;2023-07-09T08:08:48;6.70;;;3.35;;
1380;SDS011;684;48.342;10.096;2023-07-09T08:11:16;5.30;;;3.15;;
1380;SDS011;684;48.342;10.096;2023-07-09T08:13:43;7.93;;;4.47;;
1380;SDS011;684;48.342;10.096;2023-07-09T08:16:09;7.03;;;3.80;;
1380;SDS011;684;48.342;10.096;2023-07-09T08:18:37;7.10;;;3.45;;
1380;SDS011;684;48.342;10.096;2023-07-09T08:21:04;5.43;;;3.95;;
1380;SDS011;684;48.342;10.096;2023-07-09T08:23:31;5.28;;;3.60;;
1380;SDS011;684;48.342;10.096;2023-07-09T08:25:58;8.95;;;3.97;;
1380;SDS011;684;48.342;10.096;2023-07-09T08:28:28;6.63;;;3.00;;
1380;SDS011;684;48.342;10.096;2023-07-09T08:30:57;4.53;;;2.95;;
1380;SDS011;684;48.342;10.096;2023-07-09T08:33:24;6.70;;;3.33;;
1380;SDS011;684;48.342;10.096;2023-07-09T08:35:51;7.28;;;3.63;;
1380;SDS011;684;48.342;10.096;2023-07-09T08:38:19;5.10;;;3.25;;
1380;SDS011;684;48.342;10.096;2023-07-09T08:40:49;5.15;;;2.97;;
1380;SDS011;684;48.342;10.096;2023-07-09T08:43:21;5.10;;;3.60;;
1380;SDS011;684;48.342;10.096;2023-07-09T08:46:07;5.88;;;3.50;;
1380;SDS011;684;48.342;10.096;2023-07-09T08:48:42;5.40;;;3.92;;
1380;SDS011;684;48.342;10.096;2023-07-09T08:51:13;6.53;;;3.80;;
1380;SDS011;684;48.342;10.096;2023-07-09T08:53:45;5.63;;;3.40;;
1380;SDS011;684;48.342;10.096;2023-07-09T08:56:16;6.47;;;3.63;;
1380;SDS011;684;48.342;10.096;2023-07-09T08:58:45;6.72;;;3.38;;
1380;SDS011;684;48.342;10.096;2023-07-09T09:01:17;5.97;;;3.85;;
1380;SDS011;684;48.342;10.096;2023-07-09T09:03:46;5.82;;;3.20;;
1380;SDS011;684;48.342;10.096;2023-07-09T09:06:16;5.60;;;3.55;;
1380;SDS011;684;48.342;10.096;2023-07-09T09:08:47;5.68;;;3.38;;
1380;SDS011;684;48.342;10.096;2023-07-09T09:11:21;6.25;;;2.67;;
1380;SDS011;684;48.342;10.096;2023-07-09T09:13:55;6.22;;;3.13;;
1380;SDS011;684;48.342;10.096;2023-07-09T09:16:28;5.35;;;2.85;;
1380;SDS011;684;48.342;10.096;2023-07-09T09:18:58;5.82;;;3.58;;
1380;SDS011;684;48.342;10.096;2023-07-09T09:21:27;5.45;;;3.15;;
1380;SDS011;684;48.342;10.096;2023-07-09T09:24:01;6.68;;;3.42;;
1380;SDS011;684;48.342;10.096;2023-07-09T09:26:38;5.40;;;3.13;;
1380;SDS011;684;48.342;10.096;2023-07-09T09:29:11;6.65;;;3.45;;
1380;SDS011;684;48.342;10.096;2023-07-09T09:31:40;5.65;;;3.60;;
1380;SDS011;684;48.342;10.096;2023-07-09T09:34:16;5.97;;;3.35;;
1380;SDS011;684;48.342;10.096;2023-07-09T09:36:44;7.03;;;3.47;;
1380;SDS011;684;48.342;10.096;2023-07-09T09:39:11;6.57;;;2.80;;
1380;SDS011;684;48.342;10.096;2023-07-09T09:41:38;5.10;;;3.23;;
1380;SDS011;684;48.342;10.096;2023-07-09T09:44:05;8.00;;;3.67;;
1380;SDS011;684;48.342;10.096;2023-07-09T09:46:33;6.13;;;3.50;;
1380;SDS011;684;48.342;10.096;2023-07-09T09:49:00;5.33;;;3.40;;
1380;SDS011;684;48.342;10.096;2023-07-09T09:51:28;7.20;;;3.50;;
1380;SDS011;684;48.342;10.096;2023-07-09T09:53:57;6.00;;;3.53;;
1380;SDS011;684;48.342;10.096;2023-07-09T09:56:26;5.93;;;3.20;;
1380;SDS011;684;48.342;10.096;2023-07-09T09:58:54;6.67;;;3.27;;
1380;SDS011;684;48.342;10.096;2023-07-09T10:01:25;7.03;;;3.73;;
1380;SDS011;684;48.342;10.096;2023-07-09T10:03:56;6.33;;;3.17;;
1380;SDS011;684;48.342;10.096;2023-07-09T10:06:27;6.07;;;3.30;;
1380;SDS011;684;48.342;10.096;2023-07-09T10:09:00;6.43;;;3.70;;
1380;SDS011;684;48.342;10.096;2023-07-09T10:11:31;9.00;;;3.93;;
1380;SDS011;684;48.342;10.096;2023-07-09T10:14:13;7.47;;;3.93;;
1380;SDS011;684;48.342;10.096;2023-07-09T10:16:53;6.97;;;3.87;;
1380;SDS011;684;48.342;10.096;2023-07-09T10:19:29;7.90;;;4.33;;
1380;SDS011;684;48.342;10.096;2023-07-09T10:22:02;9.90;;;3.53;;
1380;SDS011;684;48.342;10.096;2023-07-09T10:24:34;6.03;;;3.60;;
1380;SDS011;684;48.342;10.096;2023-07-09T10:27:09;9.07;;;3.53;;
1380;SDS011;684;48.342;10.096;2023-07-09T10:29:42;6.33;;;3.47;;
1380;SDS011;684;48.342;10.096;2023-07-09T10:32:31;7.73;;;3.70;;
1380;SDS011;684;48.342;10.096;2023-07-09T10:35:12;6.50;;;3.30;;
1380;SDS011;684;48.342;10.096;2023-07-09T10:37:56;6.80;;;4.07;;
1380;SDS011;684;48.342;10.096;2023-07-09T10:40:36;7.80;;;3.80;;
1380;SDS011;684;48.342;10.096;2023-07-09T10:43:06;7.03;;;2.93;;
1380;SDS011;684;48.342;10.096;2023-07-09T10:45:42;5.53;;;3.30;;
1380;SDS011;684;48.342;10.096;2023-07-09T10:48:14;8.40;;;3.83;;
1380;SDS011;684;48.342;10.096;2023-07-09T10:50:46;7.40;;;3.70;;
1380;SDS011;684;48.342;10.096;2023-07-09T10:53:16;6.13;;;3.77;;
1380;SDS011;684;48.342;10.096;2023-07-09T10:55:59;8.70;;;3.80;;
1380;SDS011;684;48.342;10.096;2023-07-09T10:58:31;5.80;;;2.97;;
1380;SDS011;684;48.342;10.096;2023-07-09T11:01:03;9.60;;;4.23;;
1380;SDS011;684;48.342;10.096;2023-07-09T11:03:34;9.40;;;4.40;;
1380;SDS011;684;48.342;10.096;2023-07-09T11:06:11;7.47;;;3.63;;
1380;SDS011;684;48.342;10.096;2023-07-09T11:08:44;6.50;;;4.10;;
1380;SDS011;684;48.342;10.096;2023-07-09T11:11:14;8.33;;;3.60;;
1380;SDS011;684;48.342;10.096;2023-07-09T11:13:50;9.80;;;3.87;;
1380;SDS011;684;48.342;10.096;2023-07-09T11:16:20;7.77;;;3.27;;
1380;SDS011;684;48.342;10.096;2023-07-09T11:18:54;8.10;;;3.50;;
1380;SDS011;684;48.342;10.096;2023-07-09T11:21:31;6.43;;;3.13;;
1380;SDS011;684;48.342;10.096;2023-07-09T11:23:59;8.13;;;3.57;;
1380;SDS011;684;48.342;10.096;2023-07-09T11:26:27;6.00;;;3.23;;
1380;SDS011;684;48.342;10.096;2023-07-09T11:28:55;7.20;;;3.70;;
1380;SDS011;684;48.342;10.096;2023-07-09T11:31:39;6.67;;;3.93;;
1380;SDS011;684;48.342;10.096;2023-07-09T11:34:09;7.80;;;4.20;;
1380;SDS011;684;48.342;10.096;2023-07-09T11:36:48;7.33;;;3.23;;
1380;SDS011;684;48.342;10.096;2023-07-09T11:39:17;9.90;;;3.90;;
1380;SDS011;684;48.342;10.096;2023-07-09T11:41:47;8.33;;;3.93;;
1380;SDS011;684;48.342;10.096;2023-07-09T11:44:15;8.07;;;3.50;;
1380;SDS011;684;48.342;10.096;2023-07-09T11:46:48;6.63;;;3.70;;
1380;SDS011;684;48.342;10.096;2023-07-09T11:49:23;7.33;;;3.40;;
1380;SDS011;684;48.342;10.096;2023-07-09T11:51:57;7.00;;;4.23;;
1380;SDS011;684;48.342;10.096;2023-07-09T11:54:28;8.00;;;3.90;;
1380;SDS011;684;48.342;10.096;2023-07-09T11:57:00;9.40;;;4.03;;
1380;SDS011;684;48.342;10.096;2023-07-09T11:59:28;8.93;;;3.70;;
1380;SDS011;684;48.342;10.096;2023-07-09T12:01:55;7.50;;;3.80;;
1380;SDS011;684;48.342;10.096;2023-07-09T12:04:27;8.70;;;3.97;;
1380;SDS011;684;48.342;10.096;2023-07-09T12:07:00;8.17;;;4.43;;
1380;SDS011;684;48.342;10.096;2023-07-09T12:09:31;8.77;;;3.63;;
1380;SDS011;684;48.342;10.096;2023-07-09T12:12:16;7.67;;;4.00;;
1380;SDS011;684;48.342;10.096;2023-07-09T12:14:44;12.10;;;4.30;;
1380;SDS011;684;48.342;10.096;2023-07-09T12:17:10;7.40;;;4.00;;
1380;SDS011;684;48.342;10.096;2023-07-09T12:19:37;7.87;;;4.03;;
1380;SDS011;684;48.342;10.096;2023-07-09T12:22:08;6.30;;;3.50;;
1380;SDS011;684;48.342;10.096;2023-07-09T12:24:41;7.63;;;4.07;;
1380;SDS011;684;48.342;10.096;2023-07-09T12:27:22;6.60;;;3.53;;
1380;SDS011;684;48.342;10.096;2023-07-09T12:29:51;7.43;;;4.37;;
1380;SDS011;684;48.342;10.096;2023-07-09T12:32:19;6.90;;;3.37;;
1380;SDS011;684;48.342;10.096;2023-07-09T12:34:49;8.20;;;3.80;;
1380;SDS011;684;48.342;10.096;2023-07-09T12:37:19;5.90;;;3.37;;
1380;SDS011;684;48.342;10.096;2023-07-09T12:39:48;7.70;;;3.53;;
1380;SDS011;684;48.342;10.096;2023-07-09T12:42:18;7.63;;;3.50;;
1380;SDS011;684;48.342;10.096;2023-07-09T12:44:46;8.37;;;3.47;;
1380;SDS011;684;48.342;10.096;2023-07-09T12:47:15;6.40;;;3.87;;
1380;SDS011;684;48.342;10.096;2023-07-09T12:49:44;7.77;;;3.77;;
1380;SDS011;684;48.342;10.096;2023-07-09T12:52:13;8.73;;;3.53;;
1380;SDS011;684;48.342;10.096;2023-07-09T12:54:52;7.00;;;3.60;;
1380;SDS011;684;48.342;10.096;2023-07-09T12:57:22;6.60;;;3.33;;
1380;SDS011;684;48.342;10.096;2023-07-09T12:59:50;6.63;;;3.90;;
1380;SDS011;684;48.342;10.096;2023-07-09T13:02:17;6.47;;;3.50;;
1380;SDS011;684;48.342;10.096;2023-07-09T13:04:45;6.73;;;3.87;;
1380;SDS011;684;48.342;10.096;2023-07-09T13:07:25;6.40;;;3.53;;
1380;SDS011;684;48.342;10.096;2023-07-09T13:09:54;6.33;;;3.27;;
1380;SDS011;684;48.342;10.096;2023-07-09T13:12:28;5.80;;;3.50;;
1380;SDS011;684;48.342;10.096;2023-07-09T13:14:56;6.53;;;3.20;;
1380;SDS011;684;48.342;10.096;2023-07-09T13:17:27;6.40;;;3.93;;
1380;SDS011;684;48.342;10.096;2023-07-09T13:19:55;9.50;;;3.80;;
1380;SDS011;684;48.342;10.096;2023-07-09T13:22:22;7.70;;;3.60;;
1380;SDS011;684;48.342;10.096;2023-07-09T13:24:49;8.30;;;4.00;;
1380;SDS011;684;48.342;10.096;2023-07-09T13:27:17;8.30;;;4.00;;
1380;SDS011;684;48.342;10.096;2023-07-09T13:29:44;6.70;;;3.57;;
1380;SDS011;684;48.342;10.096;2023-07-09T13:32:12;9.03;;;4.40;;
1380;SDS011;684;48.342;10.096;2023-07-09T13:34:40;7.80;;;3.93;;
1380;SDS011;684;48.342;10.096;2023-07-09T13:37:09;8.83;;;4.07;;
1380;SDS011;684;48.342;10.096;2023-07-09T13:39:38;6.70;;;3.90;;
1380;SDS011;684;48.342;10.096;2023-07-09T13:42:07;7.63;;;3.60;;
1380;SDS011;684;48.342;10.096;2023-07-09T13:44:39;6.93;;;3.20;;
1380;SDS011;684;48.342;10.096;2023-07-09T13:47:08;9.33;;;4.70;;
1380;SDS011;684;48.342;10.096;2023-07-09T13:49:39;10.07;;;4.80;;
1380;SDS011;684;48.342;10.096;2023-07-09T13:52:08;8.63;;;4.50;;
1380;SDS011;684;48.342;10.096;2023-07-09T13:54:41;6.93;;;3.80;;
1380;SDS011;684;48.342;10.096;2023-07-09T13:57:12;7.10;;;3.80;;
1380;SDS011;684;48.342;10.096;2023-07-09T13:59:42;10.23;;;4.10;;
1380;SDS011;684;48.342;10.096;2023-07-09T14:02:17;7.20;;;3.43;;
1380;SDS011;684;48.342;10.096;2023-07-09T14:04:49;10.77;;;4.10;;
1380;SDS011;684;48.342;10.096;2023-07-09T14:07:26;8.90;;;4.00;;
1380;SDS011;684;48.342;10.096;2023-07-09T14:09:57;10.10;;;4.03;;
1380;SDS011;684;48.342;10.096;2023-07-09T14:12:23;7.73;;;3.90;;
1380;SDS011;684;48.342;10.096;2023-07-09T14:14:52;9.23;;;4.60;;
1380;SDS011;684;48.342;10.096;2023-07-09T14:17:21;9.77;;;4.00;;
1380;SDS011;684;48.342;10.096;2023-07-09T14:19:48;7.60;;;4.00;;
1380;SDS011;684;48.342;10.096;2023-07-09T14:22:21;8.57;;;4.13;;
1380;SDS011;684;48.342;10.096;2023-07-09T14:24:51;9.07;;;4.10;;
1380;SDS011;684;48.342;10.096;2023-07-09T14:27:18;6.60;;;3.83;;
1380;SDS011;684;48.342;10.096;2023-07-09T14:29:45;9.80;;;4.57;;
1380;SDS011;684;48.342;10.096;2023-07-09T14:32:23;7.70;;;4.17;;
1380;SDS011;684;48.342;10.096;2023-07-09T14:34:58;7.23;;;4.03;;
1380;SDS011;684;48.342;10.096;2023-07-09T14:37:25;8.57;;;3.60;;
1380;SDS011;684;48.342;10.096;2023-07-09T14:39:52;8.10;;;4.23;;
1380;SDS011;684;48.342;10.096;2023-07-09T14:42:19;7.60;;;3.97;;
1380;SDS011;684;48.342;10.096;2023-07-09T14:44:47;7.20;;;3.30;;
1380;SDS011;684;48.342;10.096;2023-07-09T14:47:15;10.50;;;5.03;;
1380;SDS011;684;48.342;10.096;2023-07-09T14:49:45;8.03;;;4.00;;
1380;SDS011;684;48.342;10.096;2023-07-09T14:52:13;8.03;;;4.50;;
1380;SDS011;684;48.342;10.096;2023-07-09T14:54:42;8.07;;;3.67;;
1380;SDS011;684;48.342;10.096;2023-07-09T14:57:16;7.90;;;3.97;;
1380;SDS011;684;48.342;10.096;2023-07-09T14:59:45;8.30;;;4.17;;
1380;SDS011;684;48.342;10.096;2023-07-09T15:02:22;9.57;;;3.87;;
1380;SDS011;684;48.342;10.096;2023-07-09T15:04:57;11.20;;;4.03;;
1380;SDS011;684;48.342;10.096;2023-07-09T15:07:24;7.77;;;4.37;;
1380;SDS011;684;48.342;10.096;2023-07-09T15:09:54;8.57;;;4.13;;
1380;SDS011;684;48.342;10.096;2023-07-09T15:12:26;6.63;;;3.80;;
1380;SDS011;684;48.342;10.096;2023-07-09T15:14:57;9.00;;;4.07;;
1380;SDS011;684;48.342;10.096;2023-07-09T15:17:28;8.07;;;4.10;;
1380;SDS011;684;48.342;10.096;2023-07-09T15:19:55;6.33;;;3.90;;
1380;SDS011;684;48.342;10.096;2023-07-09T15:22:26;6.80;;;3.77;;
1380;SDS011;684;48.342;10.096;2023-07-09T15:24:56;7.40;;;3.97;;
1380;SDS011;684;48.342;10.096;2023-07-09T15:27:23;9.60;;;4.60;;
1380;SDS011;684;48.342;10.096;2023-07-09T15:29:50;8.40;;;4.33;;
1380;SDS011;684;48.342;10.096;2023-07-09T15:32:17;8.43;;;3.57;;